createdAt,value
2019-03-27T00:00:51.019Z,7.30
2019-03-27T00:03:17.011Z,7.20
2019-03-27T00:05:43.277Z,7.50
2019-03-27T00:08:09.278Z,7.40
2019-03-27T00:10:35.291Z,7.40
2019-03-27T00:13:01.287Z,7.30
2019-03-27T00:15:27.280Z,7.20
2019-03-27T00:17:53.718Z,7.20
2019-03-27T00:20:19.691Z,7.20
2019-03-27T00:22:45.956Z,7.00
2019-03-27T00:25:12.063Z,6.90
2019-03-27T00:27:38.314Z,6.80
2019-03-27T00:30:08.756Z,6.70
2019-03-27T00:32:34.751Z,6.70
2019-03-27T00:35:00.760Z,6.50
2019-03-27T00:37:26.759Z,6.40
2019-03-27T00:39:52.750Z,6.40
2019-03-27T00:42:19.064Z,6.20
2019-03-27T00:44:45.095Z,6.10
2019-03-27T00:47:11.387Z,5.90
2019-03-27T00:49:37.392Z,5.70
2019-03-27T00:52:03.382Z,5.70
2019-03-27T00:54:29.690Z,5.60
2019-03-27T00:56:55.930Z,5.60
2019-03-27T00:59:22.162Z,5.60
2019-03-27T01:01:48.156Z,5.40
2019-03-27T01:04:14.170Z,5.20
2019-03-27T01:06:40.155Z,5.30
2019-03-27T01:09:06.240Z,5.30
2019-03-27T01:11:32.231Z,5.20
2019-03-27T01:13:58.513Z,5.20
2019-03-27T01:16:24.517Z,5.30
2019-03-27T01:18:50.553Z,5.40
2019-03-27T01:21:16.535Z,5.30
2019-03-27T01:23:42.814Z,5.20
2019-03-27T01:26:08.844Z,5.20
2019-03-27T01:28:35.059Z,5.10
2019-03-27T01:31:01.068Z,5.00
2019-03-27T01:33:27.059Z,5.00
2019-03-27T01:35:53.069Z,4.90
2019-03-27T01:38:19.073Z,5.20
2019-03-27T01:40:45.081Z,5.10
2019-03-27T01:43:11.312Z,5.00
2019-03-27T01:45:37.738Z,4.80
2019-03-27T01:48:03.733Z,4.90
2019-03-27T01:50:29.739Z,4.90
2019-03-27T01:52:55.702Z,4.80
2019-03-27T01:55:21.945Z,4.80
2019-03-27T01:57:47.950Z,4.70
2019-03-27T02:00:14.402Z,4.70
2019-03-27T02:02:40.628Z,4.80
2019-03-27T02:05:06.929Z,4.70
2019-03-27T02:07:32.985Z,4.60
2019-03-27T02:09:59.316Z,4.50
2019-03-27T02:12:25.306Z,4.50
2019-03-27T02:14:51.311Z,4.40
2019-03-27T02:17:17.642Z,4.30
2019-03-27T02:19:43.622Z,4.30
2019-03-27T02:22:10.123Z,4.30
2019-03-27T02:24:36.098Z,4.30
2019-03-27T02:27:02.100Z,4.20
2019-03-27T02:29:28.094Z,4.00
2019-03-27T02:31:54.115Z,4.00
2019-03-27T02:34:20.377Z,3.90
2019-03-27T02:36:46.401Z,4.00
2019-03-27T02:39:12.397Z,3.90
2019-03-27T02:41:38.416Z,3.80
2019-03-27T02:44:04.404Z,3.80
2019-03-27T02:46:30.420Z,3.80
2019-03-27T02:48:56.525Z,3.80
2019-03-27T02:51:22.486Z,3.70
2019-03-27T02:53:48.488Z,3.90
2019-03-27T02:56:14.481Z,3.80
2019-03-27T02:58:40.493Z,3.80
2019-03-27T03:01:06.473Z,3.70
2019-03-27T03:03:32.469Z,3.60
2019-03-27T03:05:58.456Z,3.70
2019-03-27T03:08:24.477Z,3.50
2019-03-27T03:10:50.459Z,3.50
2019-03-27T03:13:16.455Z,3.50
2019-03-27T03:15:42.448Z,3.40
2019-03-27T03:18:08.440Z,3.50
2019-03-27T03:20:34.544Z,3.40
2019-03-27T03:23:00.562Z,3.30
2019-03-27T03:25:26.549Z,3.30
2019-03-27T03:27:52.858Z,3.20
2019-03-27T03:30:19.154Z,3.20
2019-03-27T03:32:45.132Z,3.10
2019-03-27T03:35:11.437Z,3.10
2019-03-27T03:37:37.434Z,3.10
2019-03-27T03:40:04.140Z,3.10
2019-03-27T03:42:30.124Z,3.10
2019-03-27T03:44:56.120Z,3.10
2019-03-27T03:47:22.108Z,3.20
2019-03-27T03:49:48.116Z,3.30
2019-03-27T03:52:14.096Z,3.30
2019-03-27T03:54:40.624Z,3.40
2019-03-27T03:57:07.103Z,3.50
2019-03-27T03:59:33.696Z,3.50
2019-03-27T04:02:02.091Z,3.60
2019-03-27T04:04:31.101Z,3.70
2019-03-27T04:06:57.126Z,3.60
2019-03-27T04:09:23.424Z,3.50
2019-03-27T04:11:49.428Z,3.40
2019-03-27T04:14:15.441Z,3.30
2019-03-27T04:16:41.709Z,3.20
2019-03-27T04:19:08.051Z,3.30
2019-03-27T04:21:34.376Z,3.50
2019-03-27T04:24:00.703Z,3.60
2019-03-27T04:26:26.691Z,3.50
2019-03-27T04:28:53.021Z,3.30
2019-03-27T04:31:19.151Z,3.10
2019-03-27T04:33:45.421Z,3.00
2019-03-27T04:36:11.428Z,2.80
2019-03-27T04:38:37.425Z,2.80
2019-03-27T04:41:03.412Z,2.70
2019-03-27T04:43:29.396Z,2.60
2019-03-27T04:45:55.391Z,2.70
2019-03-27T04:48:41.284Z,2.70
2019-03-27T04:51:07.290Z,2.60
2019-03-27T04:53:33.297Z,2.60
2019-03-27T04:55:59.292Z,2.50
2019-03-27T04:58:25.284Z,2.50
2019-03-27T05:00:51.300Z,2.50
2019-03-27T05:03:17.304Z,2.70
2019-03-27T05:05:43.299Z,2.70
2019-03-27T05:08:09.311Z,2.80
2019-03-27T05:10:35.317Z,2.70
2019-03-27T05:13:01.314Z,2.60
2019-03-27T05:15:27.609Z,2.80
2019-03-27T05:17:53.611Z,2.80
2019-03-27T05:20:19.610Z,3.00
2019-03-27T05:22:45.610Z,2.90
2019-03-27T05:25:11.603Z,2.90
2019-03-27T05:27:37.594Z,2.70
2019-03-27T05:30:05.297Z,2.60
2019-03-27T05:32:31.311Z,2.70
2019-03-27T05:34:57.296Z,2.70
2019-03-27T05:37:23.312Z,2.80
2019-03-27T05:39:49.329Z,3.00
2019-03-27T05:42:15.327Z,3.20
2019-03-27T05:44:41.635Z,3.80
2019-03-27T05:47:07.644Z,4.40
2019-03-27T05:49:33.635Z,4.90
2019-03-27T05:51:59.633Z,5.60
2019-03-27T05:54:25.619Z,6.10
2019-03-27T05:56:51.615Z,7.00
2019-03-27T05:59:17.610Z,7.20
2019-03-27T06:01:43.604Z,7.20
2019-03-27T06:04:09.601Z,7.20
2019-03-27T06:06:35.652Z,7.20
2019-03-27T06:09:03.507Z,6.70
2019-03-27T06:11:29.856Z,6.50
2019-03-27T06:13:55.891Z,6.90
2019-03-27T06:16:22.208Z,6.70
2019-03-27T06:18:48.213Z,6.20
2019-03-27T06:21:14.213Z,6.40
2019-03-27T06:23:40.211Z,6.90
2019-03-27T06:26:06.212Z,8.20
2019-03-27T06:28:32.229Z,9.20
2019-03-27T06:30:58.239Z,10.10
2019-03-27T06:33:24.231Z,10.00
2019-03-27T06:35:50.231Z,10.00
2019-03-27T06:38:16.244Z,10.30
2019-03-27T06:40:42.242Z,11.50
2019-03-27T06:43:08.235Z,12.70
2019-03-27T06:45:34.507Z,14.40
2019-03-27T06:48:00.836Z,16.30
2019-03-27T06:50:26.843Z,17.60
2019-03-27T06:52:52.838Z,18.70
2019-03-27T06:55:18.844Z,19.70
2019-03-27T06:57:44.847Z,20.60
2019-03-27T07:00:11.468Z,20.30
2019-03-27T07:02:37.471Z,20.90
2019-03-27T07:05:05.173Z,21.50
2019-03-27T07:07:31.166Z,22.40
2019-03-27T07:09:57.164Z,22.10
2019-03-27T07:12:23.432Z,22.90
2019-03-27T07:14:49.446Z,22.90
2019-03-27T07:17:15.439Z,23.10
2019-03-27T07:19:41.444Z,21.70
2019-03-27T07:22:07.423Z,21.50
2019-03-27T07:24:33.447Z,21.60
2019-03-27T07:26:59.452Z,23.40
2019-03-27T07:29:25.699Z,23.70
2019-03-27T07:31:51.740Z,24.60
2019-03-27T07:34:17.742Z,23.60
2019-03-27T07:36:43.737Z,24.10
2019-03-27T07:39:11.359Z,24.60
2019-03-27T07:41:37.596Z,25.30
2019-03-27T07:44:03.603Z,24.10
2019-03-27T07:46:29.600Z,21.30
2019-03-27T07:48:55.606Z,23.00
2019-03-27T07:51:21.648Z,24.10
2019-03-27T07:53:47.655Z,25.10
2019-03-27T07:56:13.907Z,25.60
2019-03-27T07:58:39.950Z,25.50
2019-03-27T08:01:06.024Z,25.40
2019-03-27T08:03:32.023Z,25.10
2019-03-27T08:05:58.036Z,26.00
2019-03-27T08:08:24.045Z,26.10
2019-03-27T08:10:50.041Z,26.10
2019-03-27T08:13:16.287Z,26.50
2019-03-27T08:15:42.616Z,27.30
2019-03-27T08:18:08.619Z,27.20
2019-03-27T08:20:34.969Z,27.60
2019-03-27T08:23:00.955Z,28.50
2019-03-27T08:25:26.951Z,28.60
2019-03-27T08:27:53.470Z,29.10
2019-03-27T08:30:19.667Z,28.60
2019-03-27T08:32:45.915Z,24.20
2019-03-27T08:35:12.547Z,19.80
2019-03-27T08:37:38.536Z,17.50
2019-03-27T08:40:07.803Z,14.50
2019-03-27T08:42:34.924Z,13.80
2019-03-27T08:45:00.940Z,12.70
2019-03-27T08:47:26.923Z,12.40
2019-03-27T08:49:53.022Z,12.20
2019-03-27T08:52:19.327Z,11.80
2019-03-27T08:54:45.320Z,11.80
2019-03-27T08:57:11.316Z,12.00
2019-03-27T08:59:37.312Z,12.10
2019-03-27T09:02:03.316Z,12.30
2019-03-27T09:04:29.319Z,12.50
2019-03-27T09:06:55.315Z,12.80
2019-03-27T09:09:21.360Z,13.60
2019-03-27T09:11:47.416Z,14.10
2019-03-27T09:14:13.413Z,14.30
2019-03-27T09:16:39.406Z,14.30
2019-03-27T09:19:05.708Z,14.00
2019-03-27T09:21:31.699Z,13.60
2019-03-27T09:23:57.685Z,14.00
2019-03-27T09:26:23.978Z,13.60
2019-03-27T09:28:50.208Z,13.80
2019-03-27T09:31:16.219Z,14.60
2019-03-27T09:33:42.210Z,15.10
2019-03-27T09:36:08.312Z,15.50
2019-03-27T09:38:34.603Z,15.70
2019-03-27T09:41:00.594Z,15.70
2019-03-27T09:43:26.598Z,15.50
2019-03-27T09:45:52.579Z,15.20
2019-03-27T09:48:18.579Z,14.80
2019-03-27T09:50:44.837Z,14.60
2019-03-27T09:53:10.836Z,14.10
2019-03-27T09:55:37.088Z,14.10
2019-03-27T09:58:03.187Z,13.90
2019-03-27T10:00:52.794Z,13.70
2019-03-27T10:03:18.801Z,13.80
2019-03-27T10:05:44.788Z,14.00
2019-03-27T10:08:10.795Z,14.10
2019-03-27T10:10:36.807Z,14.10
2019-03-27T10:13:02.807Z,14.10
2019-03-27T10:15:28.904Z,14.20
2019-03-27T10:17:54.895Z,14.40
2019-03-27T10:20:20.888Z,14.50
2019-03-27T10:22:46.912Z,14.60
2019-03-27T10:25:12.928Z,14.60
2019-03-27T10:27:38.919Z,14.70
2019-03-27T10:30:06.124Z,14.60
2019-03-27T10:32:32.128Z,14.60
2019-03-27T10:34:58.119Z,14.40
2019-03-27T10:37:24.394Z,14.80
2019-03-27T10:39:50.391Z,15.40
2019-03-27T10:42:16.386Z,15.90
2019-03-27T10:44:42.376Z,16.40
2019-03-27T10:47:08.365Z,16.50
2019-03-27T10:49:34.671Z,16.30
2019-03-27T10:52:00.699Z,16.00
2019-03-27T10:54:26.708Z,15.80
2019-03-27T10:56:52.705Z,15.40
2019-03-27T10:59:18.703Z,15.10
2019-03-27T11:01:44.714Z,14.90
2019-03-27T11:04:10.740Z,14.60
2019-03-27T11:06:36.752Z,14.50
2019-03-27T11:09:06.482Z,13.90
2019-03-27T11:11:32.735Z,14.20
2019-03-27T11:13:58.727Z,13.90
2019-03-27T11:16:24.738Z,14.00
2019-03-27T11:18:50.747Z,13.90
2019-03-27T11:21:16.745Z,14.00
2019-03-27T11:23:42.750Z,14.30
2019-03-27T11:26:08.740Z,14.30
2019-03-27T11:28:34.744Z,14.30
2019-03-27T11:31:00.732Z,14.40
2019-03-27T11:33:28.930Z,14.30
2019-03-27T11:35:54.935Z,14.60
2019-03-27T11:38:20.945Z,14.60
2019-03-27T11:40:46.926Z,14.80
2019-03-27T11:43:12.920Z,15.20
2019-03-27T11:45:39.218Z,15.20
2019-03-27T11:48:08.068Z,15.60
2019-03-27T11:50:44.223Z,15.90
2019-03-27T11:53:02.674Z,16.00
2019-03-27T11:55:28.675Z,16.00
2019-03-27T11:57:54.965Z,16.30
2019-03-27T12:00:21.733Z,16.20
2019-03-27T12:02:47.723Z,16.30
2019-03-27T12:05:13.932Z,16.10
2019-03-27T12:07:40.192Z,16.00
2019-03-27T12:10:07.298Z,15.70
2019-03-27T12:12:33.299Z,15.50
2019-03-27T12:14:59.361Z,15.50
2019-03-27T12:17:25.410Z,15.50
2019-03-27T12:19:51.409Z,15.60
2019-03-27T12:22:17.454Z,15.60
2019-03-27T12:24:43.512Z,15.70
2019-03-27T12:27:09.511Z,15.70
2019-03-27T12:29:35.511Z,14.80
2019-03-27T12:32:01.502Z,15.10
2019-03-27T12:34:27.491Z,15.50
2019-03-27T12:36:53.514Z,15.40
2019-03-27T12:39:19.558Z,15.20
2019-03-27T12:41:45.538Z,15.60
2019-03-27T12:44:11.532Z,15.90
2019-03-27T12:46:37.556Z,15.90
2019-03-27T12:49:03.555Z,16.40
2019-03-27T12:51:29.576Z,16.50
2019-03-27T12:53:55.555Z,16.40
2019-03-27T12:56:21.564Z,16.60
2019-03-27T12:58:47.833Z,16.70
2019-03-27T13:01:13.820Z,16.50
2019-03-27T13:03:39.830Z,16.40
2019-03-27T13:06:05.830Z,16.50
2019-03-27T13:08:31.837Z,16.50
2019-03-27T13:10:58.160Z,16.00
2019-03-27T13:13:24.495Z,14.50
2019-03-27T13:15:50.474Z,14.30
2019-03-27T13:18:16.475Z,14.10
2019-03-27T13:20:42.483Z,14.20
2019-03-27T13:23:08.493Z,14.60
2019-03-27T13:25:34.487Z,14.40
2019-03-27T13:28:00.482Z,14.50
2019-03-27T13:30:26.472Z,14.60
2019-03-27T13:32:52.490Z,14.60
2019-03-27T13:35:18.631Z,15.10
2019-03-27T13:37:44.625Z,15.40
2019-03-27T13:40:11.130Z,15.90
2019-03-27T13:42:37.413Z,16.10
2019-03-27T13:45:04.310Z,16.30
2019-03-27T13:47:30.324Z,16.30
2019-03-27T13:49:56.329Z,16.20
2019-03-27T13:52:22.428Z,16.20
2019-03-27T13:54:48.754Z,16.20
2019-03-27T13:57:15.676Z,16.00
2019-03-27T13:59:41.704Z,15.90
2019-03-27T14:02:07.714Z,16.10
2019-03-27T14:04:33.700Z,15.90
2019-03-27T14:06:59.700Z,15.80
2019-03-27T14:09:25.721Z,15.50
2019-03-27T14:11:51.724Z,15.60
2019-03-27T14:14:17.755Z,15.60
2019-03-27T14:16:43.984Z,15.60
2019-03-27T14:19:09.978Z,15.60
2019-03-27T14:21:35.982Z,15.70
2019-03-27T14:24:02.264Z,15.60
2019-03-27T14:26:28.596Z,15.80
2019-03-27T14:28:54.823Z,15.90
2019-03-27T14:31:20.829Z,16.10
2019-03-27T14:33:46.817Z,16.00
2019-03-27T14:36:12.812Z,16.00
2019-03-27T14:38:39.127Z,15.80
2019-03-27T14:41:06.106Z,15.30
2019-03-27T14:43:32.084Z,15.30
2019-03-27T14:45:58.184Z,14.80
2019-03-27T14:48:24.281Z,14.80
2019-03-27T14:50:50.295Z,14.60
2019-03-27T14:53:16.291Z,13.90
2019-03-27T14:55:42.623Z,13.50
2019-03-27T14:58:08.616Z,13.70
2019-03-27T15:00:34.824Z,13.80
2019-03-27T15:03:00.820Z,14.00
2019-03-27T15:05:26.814Z,14.00
2019-03-27T15:07:52.821Z,14.40
2019-03-27T15:10:18.849Z,14.90
2019-03-27T15:12:45.352Z,15.30
2019-03-27T15:15:12.283Z,15.50
2019-03-27T15:17:38.683Z,15.50
2019-03-27T15:20:06.071Z,15.10
2019-03-27T15:22:32.087Z,14.70
2019-03-27T15:24:58.116Z,14.10
2019-03-27T15:27:24.220Z,14.30
2019-03-27T15:29:50.451Z,14.40
2019-03-27T15:32:18.663Z,14.50
2019-03-27T15:34:44.663Z,14.50
2019-03-27T15:37:10.660Z,14.40
2019-03-27T15:39:36.675Z,14.40
2019-03-27T15:42:03.872Z,14.50
2019-03-27T15:44:30.281Z,14.50
2019-03-27T15:46:56.484Z,14.60
2019-03-27T15:49:22.487Z,14.80
2019-03-27T15:51:51.011Z,14.90
2019-03-27T15:54:17.020Z,15.00
2019-03-27T15:56:43.024Z,14.60
2019-03-27T15:59:09.026Z,14.80
2019-03-27T16:01:35.602Z,14.60
2019-03-27T16:04:01.856Z,14.20
2019-03-27T16:06:27.849Z,13.50
2019-03-27T16:08:53.847Z,13.30
2019-03-27T16:11:19.853Z,13.50
2019-03-27T16:13:45.840Z,13.40
2019-03-27T16:16:12.080Z,13.10
2019-03-27T16:18:38.087Z,12.90
2019-03-27T16:21:04.086Z,12.70
2019-03-27T16:23:32.330Z,12.50
2019-03-27T16:25:57.995Z,12.20
2019-03-27T16:28:23.992Z,12.10
2019-03-27T16:30:50.032Z,11.90
2019-03-27T16:33:16.040Z,11.80
2019-03-27T16:35:42.079Z,11.70
2019-03-27T16:38:08.060Z,11.60
2019-03-27T16:40:44.959Z,11.40
2019-03-27T16:43:11.351Z,11.40
2019-03-27T16:45:37.743Z,11.20
2019-03-27T16:48:03.856Z,11.20
2019-03-27T16:50:29.848Z,11.10
2019-03-27T16:53:03.386Z,11.00
2019-03-27T16:55:24.000Z,10.90
2019-03-27T16:57:51.444Z,10.90
2019-03-27T17:00:17.931Z,10.80
2019-03-27T17:02:43.946Z,10.80
2019-03-27T17:05:10.237Z,10.70
2019-03-27T17:07:36.265Z,10.60
2019-03-27T17:10:04.262Z,10.50
2019-03-27T17:12:31.540Z,10.40
2019-03-27T17:14:57.812Z,10.40
2019-03-27T17:17:23.824Z,10.30
2019-03-27T17:19:49.852Z,10.30
2019-03-27T17:22:19.798Z,10.20
2019-03-27T17:24:43.749Z,10.20
2019-03-27T17:27:10.040Z,10.20
2019-03-27T17:29:36.019Z,10.10
2019-03-27T17:32:02.297Z,9.90
2019-03-27T17:34:28.626Z,9.90
2019-03-27T17:36:54.625Z,9.80
2019-03-27T17:39:20.629Z,9.60
2019-03-27T17:41:46.637Z,9.60
2019-03-27T17:44:12.632Z,9.60
2019-03-27T17:46:38.628Z,9.60
2019-03-27T17:49:04.658Z,9.50
2019-03-27T17:51:30.648Z,9.40
2019-03-27T17:53:56.650Z,9.40
2019-03-27T17:56:22.661Z,9.20
2019-03-27T17:58:48.966Z,9.20
2019-03-27T18:01:14.959Z,9.10
2019-03-27T18:03:41.018Z,9.10
2019-03-27T18:06:07.117Z,9.00
2019-03-27T18:08:33.148Z,9.00
2019-03-27T18:10:59.135Z,8.90
2019-03-27T18:13:25.413Z,8.80
2019-03-27T18:15:51.417Z,8.80
2019-03-27T18:18:17.668Z,8.70
2019-03-27T18:20:43.671Z,8.60
2019-03-27T18:23:09.666Z,8.60
2019-03-27T18:25:35.667Z,8.70
2019-03-27T18:28:01.657Z,8.60
2019-03-27T18:30:27.664Z,8.60
2019-03-27T18:32:53.913Z,8.50
2019-03-27T18:35:20.253Z,8.40
2019-03-27T18:37:46.342Z,8.40
2019-03-27T18:40:12.764Z,8.40
2019-03-27T18:42:38.768Z,8.20
2019-03-27T18:45:06.562Z,8.10
2019-03-27T18:47:32.591Z,8.00
2019-03-27T18:49:58.847Z,7.90
2019-03-27T18:52:24.862Z,7.90
2019-03-27T18:54:50.855Z,8.00
2019-03-27T18:57:16.861Z,8.00
2019-03-27T18:59:42.843Z,7.90
2019-03-27T19:02:08.860Z,8.00
2019-03-27T19:04:34.855Z,7.90
2019-03-27T19:07:02.376Z,7.80
2019-03-27T19:09:28.443Z,7.70
2019-03-27T19:11:54.732Z,7.50
2019-03-27T19:14:20.727Z,7.40
2019-03-27T19:16:47.084Z,7.40
2019-03-27T19:19:13.071Z,7.40
2019-03-27T19:21:39.071Z,7.50
2019-03-27T19:24:14.719Z,7.40
2019-03-27T19:26:33.356Z,7.50
2019-03-27T19:28:59.380Z,7.60
2019-03-27T19:31:25.672Z,7.50
2019-03-27T19:33:51.767Z,7.50
2019-03-27T19:36:17.770Z,7.50
2019-03-27T19:38:43.756Z,7.70
2019-03-27T19:41:10.172Z,7.60
2019-03-27T19:43:36.169Z,7.60
2019-03-27T19:46:02.358Z,7.60
2019-03-27T19:48:28.650Z,7.50
2019-03-27T19:50:54.638Z,7.50
2019-03-27T19:53:20.656Z,7.50
2019-03-27T19:55:46.643Z,7.40
2019-03-27T19:58:12.634Z,7.20
2019-03-27T20:00:38.622Z,7.10
2019-03-27T20:03:04.959Z,7.00
2019-03-27T20:05:31.055Z,6.90
2019-03-27T20:07:57.068Z,6.80
2019-03-27T20:10:23.076Z,6.80
2019-03-27T20:12:49.411Z,6.80
2019-03-27T20:15:15.715Z,6.80
2019-03-27T20:17:41.718Z,6.80
2019-03-27T20:20:08.807Z,6.80
2019-03-27T20:22:34.815Z,6.90
2019-03-27T20:25:00.804Z,6.80
2019-03-27T20:27:26.796Z,6.90
2019-03-27T20:29:52.791Z,6.90
2019-03-27T20:32:18.772Z,6.90
2019-03-27T20:34:44.777Z,7.00
2019-03-27T20:37:10.760Z,6.90
2019-03-27T20:39:36.761Z,6.80
2019-03-27T20:42:02.754Z,6.70
2019-03-27T20:44:28.753Z,6.70
2019-03-27T20:46:54.793Z,6.60
2019-03-27T20:49:20.858Z,6.70
2019-03-27T20:51:46.881Z,6.60
2019-03-27T20:54:12.891Z,6.60
2019-03-27T20:56:38.893Z,6.50
2019-03-27T20:59:04.880Z,6.60
2019-03-27T21:01:30.883Z,6.50
2019-03-27T21:03:56.892Z,6.50
2019-03-27T21:06:23.104Z,6.40
2019-03-27T21:08:49.104Z,6.40
2019-03-27T21:11:15.104Z,6.40
2019-03-27T21:13:41.594Z,6.50
2019-03-27T21:16:07.693Z,6.50
2019-03-27T21:18:33.703Z,6.50
2019-03-27T21:20:59.695Z,6.40
2019-03-27T21:23:25.686Z,6.40
2019-03-27T21:25:51.680Z,6.40
2019-03-27T21:28:18.103Z,6.30
2019-03-27T21:30:44.091Z,6.30
2019-03-27T21:33:10.374Z,6.20
2019-03-27T21:35:36.355Z,6.30
2019-03-27T21:38:02.355Z,6.30
2019-03-27T21:40:28.377Z,6.40
2019-03-27T21:42:54.470Z,6.50
2019-03-27T21:45:20.468Z,6.50
2019-03-27T21:47:46.473Z,6.50
2019-03-27T21:50:12.703Z,6.60
2019-03-27T21:52:38.691Z,6.60
2019-03-27T21:55:05.739Z,6.60
2019-03-27T21:57:31.729Z,6.50
2019-03-27T21:59:57.760Z,6.30
2019-03-27T22:02:23.926Z,6.30
2019-03-27T22:04:49.927Z,6.30
2019-03-27T22:07:19.193Z,6.20
2019-03-27T22:09:43.823Z,6.20
2019-03-27T22:12:09.820Z,6.20
2019-03-27T22:14:35.837Z,6.10
2019-03-27T22:17:01.822Z,5.90
2019-03-27T22:19:27.820Z,5.90
2019-03-27T22:21:53.809Z,5.90
2019-03-27T22:24:19.856Z,5.90
2019-03-27T22:26:45.863Z,5.90
2019-03-27T22:29:12.091Z,6.10
2019-03-27T22:31:38.103Z,6.00
2019-03-27T22:34:04.095Z,5.90
2019-03-27T22:36:30.135Z,5.90
2019-03-27T22:38:56.127Z,5.90
2019-03-27T22:41:22.752Z,5.80
2019-03-27T22:43:48.763Z,5.80
2019-03-27T22:46:14.764Z,5.80
2019-03-27T22:48:40.743Z,5.80
2019-03-27T22:51:06.920Z,5.80
2019-03-27T22:53:32.918Z,5.90
2019-03-27T22:55:59.184Z,6.20
2019-03-27T22:58:25.199Z,6.00
2019-03-27T23:00:51.409Z,5.90
2019-03-27T23:03:18.843Z,5.80
2019-03-27T23:05:45.100Z,5.70
2019-03-27T23:08:11.177Z,5.70
2019-03-27T23:10:37.296Z,5.60
2019-03-27T23:13:03.619Z,5.60
2019-03-27T23:15:29.937Z,5.50
2019-03-27T23:17:56.172Z,5.50
2019-03-27T23:20:22.168Z,5.50
2019-03-27T23:22:48.148Z,5.60
2019-03-27T23:25:15.038Z,5.50
2019-03-27T23:27:41.031Z,5.50
2019-03-27T23:30:07.859Z,5.40
2019-03-27T23:32:33.859Z,5.60
2019-03-27T23:34:59.883Z,5.50
2019-03-27T23:37:25.883Z,5.60
2019-03-27T23:39:51.878Z,5.60
2019-03-27T23:42:17.859Z,5.60
2019-03-27T23:44:43.867Z,5.60
2019-03-27T23:47:09.887Z,5.70
2019-03-27T23:49:35.891Z,5.80
2019-03-27T23:52:01.972Z,5.70
2019-03-27T23:54:27.976Z,5.60
2019-03-27T23:56:53.991Z,5.70
2019-03-27T23:59:20.013Z,5.70
